createdAt,value
2019-03-30T00:00:25.166Z,41.55
2019-03-30T00:02:53.939Z,38.42
2019-03-30T00:05:22.669Z,41.28
2019-03-30T00:07:51.435Z,39.25
2019-03-30T00:10:20.175Z,39.10
2019-03-30T00:12:48.955Z,37.05
2019-03-30T00:15:17.773Z,38.80
2019-03-30T00:17:46.545Z,39.18
2019-03-30T00:20:15.317Z,39.88
2019-03-30T00:22:44.049Z,35.00
2019-03-30T00:25:12.821Z,35.78
2019-03-30T00:27:41.561Z,35.30
2019-03-30T00:30:10.321Z,34.00
2019-03-30T00:32:39.145Z,33.55
2019-03-30T00:35:07.918Z,35.43
2019-03-30T00:37:36.638Z,32.67
2019-03-30T00:40:07.006Z,31.42
2019-03-30T00:42:35.733Z,30.32
2019-03-30T00:45:06.286Z,33.92
2019-03-30T00:47:35.069Z,31.70
2019-03-30T00:50:04.433Z,33.95
2019-03-30T00:52:33.236Z,31.73
2019-03-30T00:55:01.924Z,35.33
2019-03-30T00:57:30.692Z,32.50
2019-03-30T00:59:59.516Z,30.57
2019-03-30T01:02:28.281Z,30.43
2019-03-30T01:04:57.099Z,28.80
2019-03-30T01:07:25.861Z,26.80
2019-03-30T01:09:54.677Z,30.20
2019-03-30T01:12:23.512Z,28.05
2019-03-30T01:14:52.249Z,28.98
2019-03-30T01:17:26.840Z,28.52
2019-03-30T01:20:02.886Z,28.35
2019-03-30T01:22:26.182Z,28.65
2019-03-30T01:24:54.908Z,28.67
2019-03-30T01:27:25.340Z,30.08
2019-03-30T01:29:54.077Z,29.35
2019-03-30T01:32:25.025Z,29.07
2019-03-30T01:34:54.245Z,25.02
2019-03-30T01:37:23.013Z,24.90
2019-03-30T01:39:51.805Z,26.30
2019-03-30T01:42:20.582Z,25.02
2019-03-30T01:44:49.413Z,23.95
2019-03-30T01:47:18.265Z,29.27
2019-03-30T01:49:47.174Z,29.32
2019-03-30T01:52:16.045Z,28.30
2019-03-30T01:54:44.809Z,23.77
2019-03-30T01:57:13.542Z,26.43
2019-03-30T01:59:42.304Z,25.15
2019-03-30T02:02:11.088Z,26.85
2019-03-30T02:04:39.916Z,27.70
2019-03-30T02:07:08.722Z,25.40
2019-03-30T02:09:37.493Z,25.32
2019-03-30T02:12:06.244Z,25.43
2019-03-30T02:14:35.034Z,24.57
2019-03-30T02:17:03.976Z,25.35
2019-03-30T02:19:32.720Z,24.40
2019-03-30T02:22:01.546Z,20.77
2019-03-30T02:24:30.277Z,23.97
2019-03-30T02:26:59.412Z,24.30
2019-03-30T02:29:28.144Z,23.83
2019-03-30T02:31:56.913Z,25.80
2019-03-30T02:34:25.740Z,27.98
2019-03-30T02:36:54.576Z,31.73
2019-03-30T02:39:23.325Z,39.27
2019-03-30T02:41:52.146Z,33.78
2019-03-30T02:44:20.889Z,40.73
2019-03-30T02:46:49.723Z,33.75
2019-03-30T02:49:18.493Z,30.43
2019-03-30T02:51:47.269Z,29.55
2019-03-30T02:54:16.077Z,27.52
2019-03-30T02:56:44.815Z,27.27
2019-03-30T02:59:13.587Z,25.72
2019-03-30T03:01:45.022Z,25.82
2019-03-30T03:04:13.899Z,25.15
2019-03-30T03:06:42.647Z,26.57
2019-03-30T03:09:11.496Z,22.95
2019-03-30T03:11:40.374Z,22.80
2019-03-30T03:14:09.251Z,24.05
2019-03-30T03:16:37.986Z,22.17
2019-03-30T03:19:06.763Z,23.57
2019-03-30T03:21:35.506Z,24.95
2019-03-30T03:24:04.272Z,23.62
2019-03-30T03:26:33.082Z,24.40
2019-03-30T03:29:01.857Z,23.12
2019-03-30T03:31:30.638Z,24.07
2019-03-30T03:33:59.362Z,23.22
2019-03-30T03:36:28.241Z,22.50
2019-03-30T03:38:56.974Z,24.85
2019-03-30T03:41:25.818Z,22.50
2019-03-30T03:43:54.606Z,25.35
2019-03-30T03:46:23.408Z,22.95
2019-03-30T03:48:52.137Z,23.60
2019-03-30T03:51:26.178Z,24.33
2019-03-30T03:53:51.573Z,24.40
2019-03-30T03:56:22.005Z,20.88
2019-03-30T03:58:51.531Z,21.30
2019-03-30T04:01:22.802Z,22.30
2019-03-30T04:03:53.340Z,21.62
2019-03-30T04:06:24.853Z,21.68
2019-03-30T04:08:57.105Z,20.97
2019-03-30T04:11:28.037Z,21.07
2019-03-30T04:14:03.973Z,19.70
2019-03-30T04:16:33.034Z,22.25
2019-03-30T04:19:01.801Z,21.15
2019-03-30T04:21:43.662Z,17.80
2019-03-30T04:24:00.980Z,19.35
2019-03-30T04:26:29.751Z,19.25
2019-03-30T04:28:58.549Z,18.65
2019-03-30T04:31:27.376Z,20.77
2019-03-30T04:33:56.110Z,18.73
2019-03-30T04:36:24.945Z,18.12
2019-03-30T04:38:53.686Z,20.30
2019-03-30T04:41:24.169Z,18.52
2019-03-30T04:43:52.933Z,19.05
2019-03-30T04:46:21.757Z,20.08
2019-03-30T04:48:52.993Z,19.77
2019-03-30T04:51:26.180Z,21.75
2019-03-30T04:53:56.590Z,21.15
2019-03-30T04:56:28.162Z,21.52
2019-03-30T04:58:56.958Z,22.37
2019-03-30T05:01:25.690Z,20.65
2019-03-30T05:03:54.526Z,21.70
2019-03-30T05:06:23.277Z,22.30
2019-03-30T05:08:52.202Z,19.57
2019-03-30T05:11:21.000Z,21.57
2019-03-30T05:13:49.807Z,22.22
2019-03-30T05:16:18.513Z,23.22
2019-03-30T05:18:47.283Z,23.57
2019-03-30T05:21:16.141Z,22.58
2019-03-30T05:23:44.892Z,20.68
2019-03-30T05:26:13.657Z,23.15
2019-03-30T05:28:42.484Z,19.95
2019-03-30T05:31:11.298Z,23.20
2019-03-30T05:33:40.030Z,22.37
2019-03-30T05:36:08.801Z,24.35
2019-03-30T05:38:37.613Z,20.90
2019-03-30T05:41:06.377Z,21.97
2019-03-30T05:43:37.221Z,21.95
2019-03-30T05:46:08.921Z,20.85
2019-03-30T05:48:37.657Z,22.55
2019-03-30T05:51:06.417Z,21.10
2019-03-30T05:53:36.285Z,22.70
2019-03-30T05:56:05.041Z,23.30
2019-03-30T05:58:33.781Z,21.27
2019-03-30T06:01:02.619Z,21.27
2019-03-30T06:03:31.353Z,21.05
2019-03-30T06:06:00.121Z,20.72
2019-03-30T06:08:28.857Z,21.25
2019-03-30T06:10:58.758Z,20.43
2019-03-30T06:13:27.489Z,20.62
2019-03-30T06:15:56.298Z,20.90
2019-03-30T06:18:25.091Z,21.00
2019-03-30T06:20:53.882Z,20.25
2019-03-30T06:23:22.636Z,21.37
2019-03-30T06:25:51.450Z,20.05
2019-03-30T06:28:20.220Z,21.12
2019-03-30T06:30:49.028Z,19.57
2019-03-30T06:33:17.841Z,19.02
2019-03-30T06:35:46.978Z,19.05
2019-03-30T06:38:23.109Z,17.25
2019-03-30T06:40:52.029Z,17.98
2019-03-30T06:43:22.376Z,17.70
2019-03-30T06:45:51.316Z,18.20
2019-03-30T06:48:21.184Z,17.17
2019-03-30T06:50:49.918Z,16.97
2019-03-30T06:53:18.796Z,16.55
2019-03-30T06:55:47.852Z,17.30
2019-03-30T06:58:16.640Z,16.55
2019-03-30T07:00:49.377Z,17.17
2019-03-30T07:03:38.803Z,15.35
2019-03-30T07:06:09.521Z,16.10
2019-03-30T07:08:45.121Z,14.83
2019-03-30T07:11:29.060Z,14.53
2019-03-30T07:14:00.548Z,14.28
2019-03-30T07:16:31.554Z,14.40
2019-03-30T07:19:03.618Z,14.63
2019-03-30T07:21:32.936Z,14.87
2019-03-30T07:24:02.126Z,14.70
2019-03-30T07:26:41.261Z,13.90
2019-03-30T07:29:11.503Z,14.05
2019-03-30T07:31:42.415Z,13.98
2019-03-30T07:34:11.340Z,14.10
2019-03-30T07:36:41.796Z,14.60
2019-03-30T07:39:25.797Z,14.85
2019-03-30T07:41:57.210Z,13.55
2019-03-30T07:44:29.322Z,13.40
2019-03-30T07:46:58.626Z,14.80
2019-03-30T07:49:30.163Z,14.40
2019-03-30T07:52:05.200Z,15.03
2019-03-30T07:54:35.177Z,14.35
2019-03-30T07:57:16.521Z,14.13
2019-03-30T07:59:40.677Z,15.32
2019-03-30T08:02:10.105Z,15.53
2019-03-30T08:04:40.282Z,16.17
2019-03-30T08:07:09.049Z,15.10
2019-03-30T08:09:40.768Z,14.97
2019-03-30T08:12:09.538Z,14.95
2019-03-30T08:14:40.060Z,15.55
2019-03-30T08:17:08.909Z,16.60
2019-03-30T08:19:37.677Z,17.23
2019-03-30T08:22:06.510Z,16.73
2019-03-30T08:24:35.360Z,18.20
2019-03-30T08:27:10.124Z,17.73
2019-03-30T08:29:34.676Z,18.20
2019-03-30T08:32:03.435Z,16.67
2019-03-30T08:34:35.081Z,17.13
2019-03-30T08:37:04.050Z,17.77
2019-03-30T08:39:34.008Z,17.90
2019-03-30T08:42:02.798Z,16.73
2019-03-30T08:44:31.565Z,17.25
2019-03-30T08:47:01.425Z,18.10
2019-03-30T08:49:30.193Z,17.30
2019-03-30T08:51:59.269Z,16.55
2019-03-30T08:54:28.009Z,17.67
2019-03-30T08:56:58.645Z,18.35
2019-03-30T08:59:27.483Z,17.85
2019-03-30T09:01:56.365Z,17.00
2019-03-30T09:04:25.124Z,17.87
2019-03-30T09:06:53.918Z,17.98
2019-03-30T09:09:22.716Z,18.10
2019-03-30T09:11:51.566Z,17.25
2019-03-30T09:14:20.313Z,17.65
2019-03-30T09:16:49.153Z,18.45
2019-03-30T09:19:17.967Z,18.60
2019-03-30T09:21:46.737Z,17.82
2019-03-30T09:24:15.664Z,16.85
2019-03-30T09:26:44.659Z,17.85
2019-03-30T09:29:13.389Z,18.57
2019-03-30T09:31:42.170Z,17.70
2019-03-30T09:34:10.905Z,17.80
2019-03-30T09:36:39.859Z,18.27
2019-03-30T09:39:09.867Z,19.77
2019-03-30T09:41:38.642Z,17.73
2019-03-30T09:44:07.404Z,18.12
2019-03-30T09:46:36.198Z,19.87
2019-03-30T09:49:05.050Z,17.15
2019-03-30T09:51:33.813Z,17.52
2019-03-30T09:54:02.693Z,17.90
2019-03-30T09:56:31.432Z,17.90
2019-03-30T09:59:00.270Z,18.23
2019-03-30T10:01:29.014Z,17.27
2019-03-30T10:03:57.777Z,16.27
2019-03-30T10:06:34.382Z,15.97
2019-03-30T10:08:56.933Z,15.93
2019-03-30T10:11:25.682Z,15.60
2019-03-30T10:13:54.525Z,16.40
2019-03-30T10:16:23.293Z,18.40
2019-03-30T10:18:52.186Z,16.62
2019-03-30T10:21:21.076Z,18.67
2019-03-30T10:23:49.814Z,18.20
2019-03-30T10:26:18.661Z,17.10
2019-03-30T10:28:47.397Z,16.50
2019-03-30T10:31:16.186Z,17.17
2019-03-30T10:33:44.928Z,16.93
2019-03-30T10:36:14.856Z,15.57
2019-03-30T10:38:43.537Z,16.42
2019-03-30T10:41:12.305Z,17.15
2019-03-30T10:43:41.043Z,16.93
2019-03-30T10:46:09.810Z,16.35
2019-03-30T10:48:38.621Z,17.12
2019-03-30T10:51:07.500Z,16.27
2019-03-30T10:53:36.361Z,17.35
2019-03-30T10:56:05.201Z,18.42
2019-03-30T10:58:34.041Z,17.80
2019-03-30T11:01:02.792Z,18.70
2019-03-30T11:03:31.632Z,17.55
2019-03-30T11:06:00.448Z,18.52
2019-03-30T11:08:29.217Z,17.82
2019-03-30T11:10:57.962Z,18.15
2019-03-30T11:13:26.788Z,16.65
2019-03-30T11:15:55.620Z,15.68
2019-03-30T11:18:24.394Z,16.27
2019-03-30T11:20:53.127Z,16.48
2019-03-30T11:23:21.897Z,15.55
2019-03-30T11:25:50.639Z,15.32
2019-03-30T11:28:19.409Z,16.25
2019-03-30T11:30:48.249Z,17.07
2019-03-30T11:33:17.050Z,17.05
2019-03-30T11:35:45.833Z,15.80
2019-03-30T11:38:14.578Z,16.65
2019-03-30T11:40:43.350Z,16.65
2019-03-30T11:43:12.166Z,17.73
2019-03-30T11:45:41.016Z,19.10
2019-03-30T11:48:09.767Z,17.98
2019-03-30T11:50:38.537Z,18.67
2019-03-30T11:53:07.289Z,20.88
2019-03-30T11:55:36.064Z,19.60
2019-03-30T11:58:04.813Z,18.25
2019-03-30T12:00:33.634Z,18.05
2019-03-30T12:03:02.374Z,18.77
2019-03-30T12:05:33.123Z,18.53
2019-03-30T12:08:02.134Z,17.17
2019-03-30T12:10:35.722Z,17.80
2019-03-30T12:13:06.014Z,18.50
2019-03-30T12:15:38.220Z,18.52
2019-03-30T12:18:08.354Z,18.63
2019-03-30T12:20:37.130Z,17.33
2019-03-30T12:23:06.022Z,17.40
2019-03-30T12:25:36.507Z,18.17
2019-03-30T12:28:05.365Z,25.40
2019-03-30T12:30:35.967Z,18.85
2019-03-30T12:33:05.053Z,21.10
2019-03-30T12:35:36.369Z,18.07
2019-03-30T12:38:05.749Z,16.97
2019-03-30T12:40:34.658Z,18.42
2019-03-30T12:43:03.540Z,17.12
2019-03-30T12:45:32.428Z,19.30
2019-03-30T12:48:01.424Z,16.85
2019-03-30T12:50:31.713Z,16.65
2019-03-30T12:53:02.510Z,16.67
2019-03-30T12:55:31.780Z,15.60
2019-03-30T12:58:00.613Z,17.23
2019-03-30T13:00:29.424Z,17.50
2019-03-30T13:03:17.517Z,16.87
2019-03-30T13:05:46.293Z,17.00
2019-03-30T13:08:15.037Z,21.75
2019-03-30T13:10:45.421Z,17.73
2019-03-30T13:13:14.374Z,16.48
2019-03-30T13:15:43.221Z,20.50
2019-03-30T13:18:11.969Z,16.20
2019-03-30T13:20:40.856Z,15.13
2019-03-30T13:23:09.590Z,15.83
2019-03-30T13:25:38.361Z,17.45
2019-03-30T13:28:07.169Z,16.27
2019-03-30T13:30:35.937Z,16.77
2019-03-30T13:33:04.745Z,16.80
2019-03-30T13:35:33.521Z,16.67
2019-03-30T13:38:02.445Z,16.90
2019-03-30T13:40:31.179Z,17.60
2019-03-30T13:42:59.944Z,17.12
2019-03-30T13:45:28.803Z,16.12
2019-03-30T13:47:57.581Z,15.88
2019-03-30T13:50:26.325Z,14.10
2019-03-30T13:52:55.157Z,14.58
2019-03-30T13:55:23.897Z,13.08
2019-03-30T13:57:52.736Z,14.58
2019-03-30T14:00:21.598Z,14.23
2019-03-30T14:02:50.381Z,14.78
2019-03-30T14:05:19.197Z,13.98
2019-03-30T14:07:47.961Z,14.03
2019-03-30T14:10:16.705Z,13.93
2019-03-30T14:12:45.485Z,14.05
2019-03-30T14:15:14.312Z,14.10
2019-03-30T14:17:43.080Z,15.10
2019-03-30T14:20:12.023Z,14.60
2019-03-30T14:22:40.784Z,15.35
2019-03-30T14:25:10.091Z,15.13
2019-03-30T14:27:38.808Z,15.83
2019-03-30T14:30:10.745Z,18.40
2019-03-30T14:32:39.541Z,18.17
2019-03-30T14:35:08.522Z,16.13
2019-03-30T14:37:37.361Z,17.77
2019-03-30T14:40:08.706Z,16.93
2019-03-30T14:42:41.736Z,16.77
2019-03-30T14:45:13.552Z,16.48
2019-03-30T14:47:43.241Z,18.15
2019-03-30T14:50:15.571Z,14.98
2019-03-30T14:52:44.745Z,15.55
2019-03-30T14:55:15.841Z,15.00
2019-03-30T14:57:47.768Z,16.75
2019-03-30T15:00:16.327Z,15.30
2019-03-30T15:02:45.145Z,15.72
2019-03-30T15:05:16.012Z,15.38
2019-03-30T15:07:46.594Z,15.38
2019-03-30T15:10:15.697Z,15.65
2019-03-30T15:12:44.463Z,15.93
2019-03-30T15:15:13.872Z,16.17
2019-03-30T15:17:42.643Z,16.03
2019-03-30T15:20:13.219Z,16.02
2019-03-30T15:22:42.210Z,15.90
2019-03-30T15:25:11.393Z,14.40
2019-03-30T15:27:40.236Z,15.95
2019-03-30T15:30:09.411Z,16.10
2019-03-30T15:32:38.177Z,15.20
2019-03-30T15:35:07.321Z,15.03
2019-03-30T15:37:36.093Z,15.45
2019-03-30T15:40:07.104Z,14.60
2019-03-30T15:42:35.927Z,14.87
2019-03-30T15:45:07.878Z,15.53
2019-03-30T15:47:36.649Z,15.60
2019-03-30T15:50:06.993Z,16.60
2019-03-30T15:52:35.785Z,15.28
2019-03-30T15:55:07.563Z,15.43
2019-03-30T15:57:36.840Z,18.43
2019-03-30T16:00:10.657Z,17.65
2019-03-30T16:02:39.605Z,19.30
2019-03-30T16:05:08.634Z,18.48
2019-03-30T16:07:37.445Z,17.73
2019-03-30T16:10:06.821Z,14.98
2019-03-30T16:12:35.573Z,14.98
2019-03-30T16:15:08.186Z,15.10
2019-03-30T16:17:36.997Z,13.53
2019-03-30T16:20:07.429Z,15.23
2019-03-30T16:22:36.330Z,15.28
2019-03-30T16:25:07.599Z,15.40
2019-03-30T16:27:39.155Z,16.30
2019-03-30T16:30:08.119Z,17.07
2019-03-30T16:32:36.810Z,16.50
2019-03-30T16:35:06.379Z,20.65
2019-03-30T16:37:35.160Z,15.95
2019-03-30T16:40:05.177Z,17.07
2019-03-30T16:42:34.080Z,17.32
2019-03-30T16:45:02.905Z,15.88
2019-03-30T16:47:31.713Z,17.35
2019-03-30T16:50:00.483Z,17.10
2019-03-30T16:52:29.289Z,15.70
2019-03-30T16:54:58.126Z,15.25
2019-03-30T16:57:26.965Z,16.20
2019-03-30T16:59:55.728Z,14.80
2019-03-30T17:02:24.474Z,15.13
2019-03-30T17:04:53.253Z,15.23
2019-03-30T17:07:21.998Z,15.45
2019-03-30T17:09:50.837Z,15.60
2019-03-30T17:12:19.725Z,15.08
2019-03-30T17:14:48.583Z,16.80
2019-03-30T17:17:17.421Z,17.20
2019-03-30T17:19:46.229Z,15.53
2019-03-30T17:22:14.988Z,17.10
2019-03-30T17:24:43.733Z,17.07
2019-03-30T17:27:12.561Z,15.58
2019-03-30T17:29:41.405Z,16.67
2019-03-30T17:32:10.190Z,15.50
2019-03-30T17:34:38.927Z,16.15
2019-03-30T17:37:07.764Z,16.32
2019-03-30T17:39:36.510Z,17.42
2019-03-30T17:42:05.389Z,15.98
2019-03-30T17:44:34.225Z,16.17
2019-03-30T17:47:03.056Z,17.55
2019-03-30T17:49:31.813Z,17.15
2019-03-30T17:52:00.578Z,16.62
2019-03-30T17:54:29.323Z,17.32
2019-03-30T17:56:58.104Z,16.90
2019-03-30T17:59:26.841Z,17.45
2019-03-30T18:01:55.686Z,16.52
2019-03-30T18:04:24.429Z,13.77
2019-03-30T18:06:53.196Z,18.82
2019-03-30T18:09:22.033Z,14.70
2019-03-30T18:11:50.806Z,16.30
2019-03-30T18:14:19.609Z,15.53
2019-03-30T18:16:48.415Z,15.05
2019-03-30T18:19:17.222Z,15.95
2019-03-30T18:21:45.994Z,19.55
2019-03-30T18:24:14.916Z,13.80
2019-03-30T18:26:43.705Z,17.80
2019-03-30T18:29:12.446Z,15.98
2019-03-30T18:31:41.816Z,19.65
2019-03-30T18:34:10.609Z,16.65
2019-03-30T18:36:40.878Z,17.87
2019-03-30T18:39:10.316Z,15.15
2019-03-30T18:41:39.101Z,15.55
2019-03-30T18:44:07.844Z,17.12
2019-03-30T18:46:36.615Z,16.73
2019-03-30T18:49:05.392Z,16.10
2019-03-30T18:51:34.452Z,19.42
2019-03-30T18:54:03.497Z,20.88
2019-03-30T18:56:32.304Z,22.35
2019-03-30T18:59:01.200Z,21.27
2019-03-30T19:01:30.041Z,22.07
2019-03-30T19:03:58.889Z,23.20
2019-03-30T19:06:27.672Z,25.52
2019-03-30T19:08:56.560Z,26.73
2019-03-30T19:11:25.289Z,21.15
2019-03-30T19:13:54.117Z,21.73
2019-03-30T19:16:22.857Z,26.57
2019-03-30T19:18:51.641Z,25.90
2019-03-30T19:21:20.480Z,24.55
2019-03-30T19:23:49.245Z,22.62
2019-03-30T19:26:18.135Z,21.10
2019-03-30T19:28:56.143Z,26.50
2019-03-30T19:31:17.682Z,24.00
2019-03-30T19:33:46.548Z,21.90
2019-03-30T19:36:15.431Z,26.55
2019-03-30T19:38:44.420Z,25.00
2019-03-30T19:41:13.245Z,23.40
2019-03-30T19:43:42.180Z,26.02
2019-03-30T19:46:11.069Z,23.52
2019-03-30T19:48:40.178Z,24.52
2019-03-30T19:51:08.924Z,29.60
2019-03-30T19:53:37.764Z,27.25
2019-03-30T19:56:06.551Z,24.02
2019-03-30T19:58:35.610Z,24.27
2019-03-30T20:01:04.353Z,27.27
2019-03-30T20:03:33.147Z,25.72
2019-03-30T20:06:01.897Z,20.20
2019-03-30T20:08:30.703Z,19.82
2019-03-30T20:10:59.438Z,24.25
2019-03-30T20:13:28.213Z,22.77
2019-03-30T20:15:57.030Z,21.95
2019-03-30T20:18:25.829Z,21.48
2019-03-30T20:20:54.578Z,21.37
2019-03-30T20:23:23.455Z,23.18
2019-03-30T20:25:52.190Z,21.97
2019-03-30T20:28:20.953Z,18.62
2019-03-30T20:30:49.782Z,21.90
2019-03-30T20:33:18.709Z,23.02
2019-03-30T20:35:47.522Z,24.82
2019-03-30T20:38:16.294Z,23.00
2019-03-30T20:40:45.029Z,27.42
2019-03-30T20:43:13.857Z,24.02
2019-03-30T20:45:42.689Z,24.07
2019-03-30T20:48:11.497Z,24.80
2019-03-30T20:50:40.321Z,28.83
2019-03-30T20:53:09.068Z,24.37
2019-03-30T20:55:37.832Z,25.82
2019-03-30T20:58:06.582Z,31.87
2019-03-30T21:00:35.373Z,36.50
2019-03-30T21:03:04.110Z,37.48
2019-03-30T21:05:32.881Z,35.73
2019-03-30T21:08:01.694Z,29.10
2019-03-30T21:10:30.458Z,27.48
2019-03-30T21:12:59.200Z,30.90
2019-03-30T21:15:27.964Z,33.13
2019-03-30T21:17:56.705Z,30.05
2019-03-30T21:20:25.569Z,30.72
2019-03-30T21:22:54.316Z,34.53
2019-03-30T21:25:23.146Z,29.07
2019-03-30T21:27:51.889Z,33.28
2019-03-30T21:30:20.722Z,30.60
2019-03-30T21:32:49.458Z,33.42
2019-03-30T21:35:18.226Z,29.72
2019-03-30T21:37:46.962Z,28.32
2019-03-30T21:40:15.727Z,30.35
2019-03-30T21:42:44.461Z,32.90
2019-03-30T21:45:13.245Z,33.13
2019-03-30T21:47:41.995Z,31.73
2019-03-30T21:50:10.958Z,34.50
2019-03-30T21:52:39.706Z,29.10
2019-03-30T21:55:08.669Z,28.27
2019-03-30T21:57:37.455Z,33.05
2019-03-30T22:00:10.530Z,35.70
2019-03-30T22:02:38.175Z,30.48
2019-03-30T22:05:07.134Z,33.63
2019-03-30T22:07:36.888Z,28.73
2019-03-30T22:10:07.907Z,28.02
2019-03-30T22:12:39.513Z,27.35
2019-03-30T22:15:08.488Z,28.87
2019-03-30T22:17:37.229Z,27.17
2019-03-30T22:20:07.405Z,31.20
2019-03-30T22:22:36.211Z,26.15
2019-03-30T22:25:06.372Z,25.82
2019-03-30T22:27:35.106Z,24.37
2019-03-30T22:30:05.769Z,23.62
2019-03-30T22:32:34.585Z,25.90
2019-03-30T22:35:03.543Z,23.45
2019-03-30T22:37:32.282Z,22.45
2019-03-30T22:40:01.049Z,21.62
2019-03-30T22:42:29.866Z,23.83
2019-03-30T22:44:58.689Z,25.77
2019-03-30T22:47:27.433Z,23.25
2019-03-30T22:49:56.202Z,21.97
2019-03-30T22:52:24.938Z,23.45
2019-03-30T22:54:53.705Z,27.48
2019-03-30T22:57:22.478Z,24.65
2019-03-30T22:59:51.317Z,25.80
2019-03-30T23:02:20.077Z,23.85
2019-03-30T23:04:48.849Z,26.07
2019-03-30T23:07:17.629Z,22.65
2019-03-30T23:09:46.366Z,27.48
2019-03-30T23:12:15.129Z,24.20
2019-03-30T23:14:43.897Z,22.93
2019-03-30T23:17:12.734Z,25.37
2019-03-30T23:19:41.471Z,26.85
2019-03-30T23:22:10.338Z,23.38
2019-03-30T23:24:39.157Z,26.57
2019-03-30T23:27:07.942Z,41.90
2019-03-30T23:29:36.681Z,37.80
2019-03-30T23:32:05.557Z,35.38
2019-03-30T23:34:34.301Z,34.25
2019-03-30T23:37:03.134Z,35.83
2019-03-30T23:39:31.869Z,36.85
2019-03-30T23:42:00.705Z,36.95
2019-03-30T23:44:29.445Z,37.10
2019-03-30T23:46:58.209Z,37.10
2019-03-30T23:49:26.944Z,37.05
2019-03-30T23:51:55.709Z,36.80
2019-03-30T23:54:24.545Z,34.90
2019-03-30T23:56:53.315Z,37.00
2019-03-30T23:59:22.136Z,37.23
